Tecumseh, MI

4:57 PM EDT on March 31, 2015 (GMT -0400)
Herrick Park | | Change Station
CLOSE
Current Station
Personal Weather Station
Location: Tecumseh, MI
Elevation: 787 ft
Nearby Weather Stations

Elev 787 ft 42.01 °N, 83.93 °W | Updated 20 minutes ago

Overcast
Overcast
45.0 °F
Feels Like 45 °F
N
2.0
Wind Variable Wind from West
Gusts 2.5 mph

Today
High -- | Low -- °F
--% Chance of Precip.
Yesterday
High -- | Low -- °F
Precip. -- in
7:20 AM 7:59 PM
Waxing Gibbous, 88% visible
Pressure 29.95 in
Visibility 10.0 miles
Clouds Mostly Cloudy 2200 ft
Overcast 2700 ft
Windchill 45 °F
Dew Point 35 °F
Humidity 67%
Rainfall 0.04 in
Snow Depth Not available.
UV 1 out of 12
Pollen 3.50 out of 12
Air Quality Not available.
Flu Activity Not available.
METAR KADG 312053Z AUTO 34005KT 10SM BKN022 OVC027 06/01 A2993 RMK AO2 SLP142 T00560011 51014 TSNO

More Conditions Fewer Conditions

Pressure 29.95 in
Visibility 10.0 miles
Clouds Mostly Cloudy 2200 ft
Overcast 2700 ft
Windchill 45 °F
Dew Point 35 °F
Humidity 67%
Rainfall 0.04 in
Snow Depth Not available.
UV 1 out of 12
Pollen 3.50 out of 12
Air Quality Not available.
Flu Activity Not available.
METAR KADG 312053Z AUTO 34005KT 10SM BKN022 OVC027 06/01 A2993 RMK AO2 SLP142 T00560011 51014 TSNO

More Conditions Fewer Conditions

10-Day Weather Forecast

Almanac

Astronomy

Mar. 31, 2015 Rise Set
Actual Time
Civil Twilight
Nautical Twilight
Astronomical Twilight
Moon
Length of Visible Light
Length of Day
Tomorrow will be .
, % of the Moon is Illuminated

Today's Extremes

State Highs State Lows

Community

WunderPhotos

Upload Photos

1,809,826 photos uploaded!

WunderBlogs® & News

Nearby

Air Quality

  Air Quality AQ Index Pollutant
Not available.

Snow Depth

Station Depth Elevation

Earthquake Activity

City Distance Mag. Time & Date
Minimum magnitude displayed is 2.5.

Coastal Water Temperatures

Place Temperature

Stations

Nearby Weather Stations

Station Location Temp. Windchill Dew Point Humidity Wind Precip. Elev Updated Type